Time;durP1;ratioP1;P1;durP2;ratioP2;P2;SDS_P1;SDS_P2;PMS_P1;PMS_P2;Temp;Humidity;BMP_temperature;BMP_pressure;BME280_temperature;BME280_humidity;BME280_pressure;Samples;Min_cycle;Max_cycle;Signal;HPM_P1;HPM_P2
2023/07/23 00:00:47;;;;;;;6.40;3.72;;;22.40;41.10;;;;;;4946879;28;20059;-41
2023/07/23 00:03:14;;;;;;;4.97;3.38;;;22.40;40.70;;;;;;4948205;28;20415;-40
2023/07/23 00:05:44;;;;;;;5.47;3.38;;;22.40;40.80;;;;;;4960517;28;20053;-43
2023/07/23 00:08:11;;;;;;;3.67;3.22;;;22.40;40.90;;;;;;4966145;28;20059;-42
2023/07/23 00:10:38;;;;;;;4.22;3.40;;;22.40;41.00;;;;;;4966860;28;20069;-41
2023/07/23 00:13:06;;;;;;;4.13;3.33;;;22.40;41.50;;;;;;4967745;28;20486;-41
2023/07/23 00:15:33;;;;;;;4.95;3.65;;;22.40;40.90;;;;;;4966061;28;20055;-41
2023/07/23 00:18:03;;;;;;;4.80;3.60;;;22.40;40.90;;;;;;4967009;28;20050;-42
2023/07/23 00:20:30;;;;;;;5.43;4.00;;;22.40;41.10;;;;;;4965551;28;20074;-45
2023/07/23 00:22:57;;;;;;;4.97;3.58;;;22.40;41.10;;;;;;4967354;28;20051;-42
2023/07/23 00:25:24;;;;;;;4.38;3.45;;;22.30;41.10;;;;;;4966139;28;20047;-42
2023/07/23 00:27:52;;;;;;;5.05;3.28;;;22.30;41.30;;;;;;4966452;28;20078;-41
2023/07/23 00:30:19;;;;;;;5.78;3.80;;;22.30;41.20;;;;;;4964525;28;20634;-47
2023/07/23 00:32:46;;;;;;;5.30;3.58;;;22.30;41.30;;;;;;4966917;28;20046;-44
2023/07/23 00:35:15;;;;;;;3.70;2.92;;;22.30;41.30;;;;;;4966179;28;20062;-44
2023/07/23 00:37:42;;;;;;;4.45;3.30;;;22.30;41.40;;;;;;4966344;28;20081;-41
2023/07/23 00:40:11;;;;;;;6.15;4.03;;;22.30;41.30;;;;;;4965806;28;20059;-41
2023/07/23 00:42:38;;;;;;;5.47;3.63;;;22.30;41.30;;;;;;4967280;28;20051;-41
2023/07/23 00:45:06;;;;;;;5.20;3.40;;;22.30;41.30;;;;;;4965982;28;20055;-45
2023/07/23 00:47:33;;;;;;;4.70;3.83;;;22.30;41.30;;;;;;4965698;28;20061;-40
2023/07/23 00:50:01;;;;;;;6.70;4.18;;;22.30;41.20;;;;;;4965566;28;20053;-41
2023/07/23 00:52:30;;;;;;;6.35;3.83;;;22.30;41.20;;;;;;4965571;28;20058;-52
2023/07/23 00:54:58;;;;;;;4.78;3.70;;;22.30;41.20;;;;;;4965647;28;20055;-40
2023/07/23 00:57:25;;;;;;;5.10;3.60;;;22.30;41.10;;;;;;4965837;28;20422;-41
2023/07/23 00:59:53;;;;;;;5.93;3.95;;;22.20;41.10;;;;;;4965892;28;20055;-42
2023/07/23 01:02:20;;;;;;;7.97;4.18;;;22.20;41.10;;;;;;4965252;28;20512;-47
2023/07/23 01:04:47;;;;;;;5.88;3.80;;;22.20;41.20;;;;;;4999685;23;20087;-49
2023/07/23 01:07:15;;;;;;;5.00;3.28;;;22.20;41.70;;;;;;4984736;28;20065;-47
2023/07/23 01:09:44;;;;;;;5.15;3.70;;;22.20;41.30;;;;;;4984224;28;20054;-45
2023/07/23 01:12:13;;;;;;;5.68;3.70;;;22.20;41.30;;;;;;4983750;28;20524;-50
2023/07/23 01:14:40;;;;;;;4.05;3.05;;;22.20;41.40;;;;;;4985256;28;20517;-45
2023/07/23 01:17:08;;;;;;;6.68;3.75;;;22.20;41.40;;;;;;4983527;28;20061;-51
2023/07/23 01:19:37;;;;;;;6.53;3.35;;;22.20;41.50;;;;;;4984841;28;20050;-47
2023/07/23 01:22:07;;;;;;;5.90;4.18;;;22.20;41.50;;;;;;4985167;28;20058;-47
2023/07/23 01:24:35;;;;;;;6.68;4.45;;;22.10;41.40;;;;;;4984357;28;20047;-43
2023/07/23 01:27:02;;;;;;;4.90;3.75;;;22.10;41.30;;;;;;4983931;28;20728;-45
2023/07/23 01:29:30;;;;;;;5.43;3.95;;;22.10;41.30;;;;;;4984807;28;20054;-46
2023/07/23 01:31:57;;;;;;;5.40;3.80;;;22.10;41.30;;;;;;4984099;28;20060;-45
2023/07/23 01:34:25;;;;;;;5.57;3.97;;;22.10;41.40;;;;;;4983979;28;20050;-45
2023/07/23 01:36:53;;;;;;;6.63;3.63;;;22.10;41.40;;;;;;4984226;28;20053;-47
2023/07/23 01:39:22;;;;;;;5.95;3.45;;;22.10;41.40;;;;;;4984667;28;20054;-44
2023/07/23 01:41:49;;;;;;;6.28;3.83;;;22.10;41.40;;;;;;4984424;28;20050;-44
2023/07/23 01:44:16;;;;;;;6.55;4.43;;;22.10;41.40;;;;;;4984599;28;20061;-44
2023/07/23 01:46:46;;;;;;;8.15;4.28;;;22.00;41.40;;;;;;4983683;28;20054;-49
2023/07/23 01:49:13;;;;;;;5.63;3.88;;;22.00;41.50;;;;;;4983351;28;20510;-44
2023/07/23 01:51:41;;;;;;;8.55;4.25;;;22.00;41.50;;;;;;4984066;28;20054;-49
2023/07/23 01:54:08;;;;;;;5.47;4.00;;;22.10;41.50;;;;;;4983881;28;20061;-52
2023/07/23 01:56:36;;;;;;;6.95;4.20;;;22.00;41.40;;;;;;4982227;28;20054;-47
2023/07/23 01:59:04;;;;;;;9.82;4.45;;;22.00;41.50;;;;;;4984283;28;20061;-43
2023/07/23 02:01:31;;;;;;;7.65;3.72;;;22.00;41.40;;;;;;4982829;28;20058;-51
2023/07/23 02:03:58;;;;;;;5.07;3.67;;;22.00;41.50;;;;;;4983736;28;20387;-46
2023/07/23 02:06:26;;;;;;;7.95;3.75;;;22.00;41.40;;;;;;4983504;28;20061;-47
2023/07/23 02:08:53;;;;;;;5.60;3.72;;;21.90;41.40;;;;;;4983185;28;20430;-47
2023/07/23 02:11:20;;;;;;;5.38;3.50;;;21.90;41.40;;;;;;4983749;28;20581;-46
2023/07/23 02:13:49;;;;;;;8.15;3.50;;;21.90;41.20;;;;;;4983303;28;20061;-43
2023/07/23 02:16:17;;;;;;;6.57;3.47;;;21.90;41.30;;;;;;4981705;28;20057;-47
2023/07/23 02:18:45;;;;;;;5.57;3.40;;;21.90;41.40;;;;;;4983005;28;20391;-48
2023/07/23 02:21:12;;;;;;;6.63;3.92;;;21.90;41.50;;;;;;4982012;28;20077;-46
2023/07/23 02:23:39;;;;;;;5.47;3.60;;;21.90;41.60;;;;;;4983783;28;20052;-46
2023/07/23 02:26:06;;;;;;;7.60;3.85;;;21.90;41.50;;;;;;4983568;28;20073;-44
2023/07/23 02:28:33;;;;;;;5.68;3.60;;;21.90;41.40;;;;;;4983584;28;20057;-45
2023/07/23 02:31:02;;;;;;;7.65;3.55;;;21.90;41.50;;;;;;4982346;28;20519;-49
2023/07/23 02:33:30;;;;;;;5.00;3.47;;;21.80;41.50;;;;;;4983314;28;20053;-49
2023/07/23 02:35:57;;;;;;;6.75;3.42;;;21.80;41.40;;;;;;4983838;28;20502;-46
2023/07/23 02:38:24;;;;;;;6.35;3.40;;;21.80;41.40;;;;;;4982671;28;20058;-44
2023/07/23 02:40:56;;;;;;;4.97;2.95;;;21.80;41.40;;;;;;4982471;28;20057;-46
2023/07/23 02:43:23;;;;;;;3.95;3.00;;;21.80;41.40;;;;;;4983215;28;20088;-47
2023/07/23 02:45:50;;;;;;;5.55;3.60;;;21.80;41.50;;;;;;4982122;28;20476;-46
2023/07/23 02:48:19;;;;;;;7.00;3.88;;;21.80;41.60;;;;;;4983126;28;20061;-44
2023/07/23 02:50:46;;;;;;;5.28;3.10;;;21.80;41.50;;;;;;4982447;28;20421;-44
2023/07/23 02:53:13;;;;;;;4.10;3.05;;;21.80;41.60;;;;;;4982364;28;20058;-46
2023/07/23 02:55:41;;;;;;;5.40;3.35;;;21.80;41.60;;;;;;4982713;28;20050;-43
2023/07/23 02:58:08;;;;;;;4.38;3.00;;;21.80;41.60;;;;;;4981343;28;20058;-44
2023/07/23 03:00:37;;;;;;;4.75;3.20;;;21.80;41.60;;;;;;4981542;28;20061;-45
2023/07/23 03:03:06;;;;;;;4.47;3.28;;;21.80;41.60;;;;;;4982695;28;21200;-49
2023/07/23 03:05:35;;;;;;;9.15;3.40;;;21.80;41.70;;;;;;4982181;28;20504;-51
2023/07/23 03:08:03;;;;;;;5.60;3.35;;;21.80;41.70;;;;;;4982747;28;20607;-43
2023/07/23 03:10:31;;;;;;;5.82;3.30;;;21.80;41.80;;;;;;4982455;28;20054;-44
2023/07/23 03:12:58;;;;;;;5.88;3.55;;;21.80;41.80;;;;;;4983468;28;20050;-46
2023/07/23 03:15:26;;;;;;;5.75;2.85;;;21.80;41.70;;;;;;4982946;28;20498;-46
2023/07/23 03:17:53;;;;;;;5.18;3.30;;;21.80;41.70;;;;;;4982552;28;20054;-47
2023/07/23 03:20:20;;;;;;;7.45;3.30;;;21.80;41.70;;;;;;4984863;28;20061;-48
2023/07/23 03:22:49;;;;;;;5.63;3.83;;;21.80;41.80;;;;;;4987255;28;20486;-59
2023/07/23 03:25:16;;;;;;;10.73;3.28;;;21.80;41.80;;;;;;4986921;28;20073;-58
2023/07/23 03:27:44;;;;;;;4.45;3.35;;;21.80;41.70;;;;;;4986511;28;20778;-55
2023/07/23 03:30:12;;;;;;;6.82;3.83;;;21.80;41.80;;;;;;4986114;28;20506;-57
2023/07/23 03:32:41;;;;;;;6.53;3.63;;;21.80;41.90;;;;;;4983808;28;20054;-59
2023/07/23 03:35:09;;;;;;;4.38;2.92;;;21.80;41.90;;;;;;4986280;28;20054;-57
2023/07/23 03:37:36;;;;;;;4.50;3.10;;;21.80;41.80;;;;;;4986678;28;20069;-58
2023/07/23 03:40:06;;;;;;;13.35;3.42;;;21.80;41.80;;;;;;4985489;28;20061;-59
2023/07/23 03:42:33;;;;;;;24.65;13.10;;;21.80;41.70;;;;;;4986572;28;20514;-57
2023/07/23 03:45:00;;;;;;;11.60;6.20;;;21.80;41.70;;;;;;4987300;28;20046;-52
2023/07/23 03:47:27;;;;;;;6.55;4.20;;;21.70;41.70;;;;;;4985056;28;20497;-53
2023/07/23 03:49:54;;;;;;;5.55;3.55;;;21.70;41.70;;;;;;4986271;28;20057;-55
2023/07/23 03:52:22;;;;;;;5.88;3.17;;;21.70;41.80;;;;;;4986236;28;20513;-53
2023/07/23 03:54:50;;;;;;;4.82;3.13;;;21.70;41.70;;;;;;4986777;28;20058;-58
2023/07/23 03:57:18;;;;;;;7.47;3.13;;;21.70;41.80;;;;;;4984917;28;20061;-59
2023/07/23 03:59:47;;;;;;;6.00;3.50;;;21.70;41.90;;;;;;4985312;28;20061;-47
2023/07/23 04:02:14;;;;;;;5.45;3.20;;;21.70;41.80;;;;;;4985062;28;20058;-59
2023/07/23 04:04:42;;;;;;;7.10;2.75;;;21.70;41.90;;;;;;4985097;28;20513;-59
2023/07/23 04:07:09;;;;;;;3.55;2.67;;;21.70;41.90;;;;;;4987375;28;20512;-59
2023/07/23 04:09:37;;;;;;;3.92;2.75;;;21.70;41.90;;;;;;4985966;28;20054;-58
2023/07/23 04:12:04;;;;;;;6.22;3.42;;;21.70;42.10;;;;;;4984056;28;20058;-59
2023/07/23 04:14:34;;;;;;;5.38;3.45;;;21.70;42.10;;;;;;4986321;28;20502;-54
2023/07/23 04:17:01;;;;;;;8.75;2.95;;;21.60;42.10;;;;;;4983567;28;20620;-55
2023/07/23 04:19:28;;;;;;;4.25;3.05;;;21.70;42.10;;;;;;4987221;28;20062;-58
2023/07/23 04:21:56;;;;;;;4.15;2.80;;;21.70;42.10;;;;;;4981864;28;20061;-56
2023/07/23 04:24:24;;;;;;;5.50;3.00;;;21.70;42.30;;;;;;4982920;28;20498;-58
2023/07/23 04:26:51;;;;;;;7.20;3.50;;;21.70;42.40;;;;;;4984397;28;20081;-58
2023/07/23 04:29:19;;;;;;;4.93;2.95;;;21.70;42.50;;;;;;4985432;28;20047;-58
2023/07/23 04:31:47;;;;;;;11.32;7.65;;;21.70;42.50;;;;;;4984732;28;20054;-59
2023/07/23 04:34:17;;;;;;;8.60;6.22;;;21.70;42.60;;;;;;4985187;28;20049;-52
2023/07/23 04:36:44;;;;;;;7.35;4.15;;;21.70;42.70;;;;;;4986133;28;20057;-52
2023/07/23 04:39:12;;;;;;;4.65;3.30;;;21.70;42.70;;;;;;4983075;28;20065;-53
2023/07/23 04:41:39;;;;;;;5.35;3.65;;;21.70;42.80;;;;;;4984837;28;20053;-59
2023/07/23 04:44:06;;;;;;;8.25;3.03;;;21.80;42.90;;;;;;4985417;28;20062;-60
2023/07/23 04:46:33;;;;;;;5.53;3.20;;;21.70;42.90;;;;;;4982409;28;20050;-59
2023/07/23 04:49:02;;;;;;;4.18;2.95;;;21.70;42.90;;;;;;4984851;28;20057;-54
2023/07/23 04:51:29;;;;;;;4.80;3.20;;;21.80;43.00;;;;;;4984804;28;20065;-58
2023/07/23 04:53:56;;;;;;;5.88;2.72;;;21.70;43.00;;;;;;4985029;28;20050;-59
2023/07/23 04:56:24;;;;;;;5.53;3.65;;;21.70;43.00;;;;;;4984261;28;21069;-59
2023/07/23 04:58:51;;;;;;;5.43;3.58;;;21.70;43.00;;;;;;4984417;28;20065;-59
2023/07/23 05:01:18;;;;;;;4.57;2.88;;;21.70;43.00;;;;;;4983515;28;20065;-51
2023/07/23 05:03:45;;;;;;;3.83;2.60;;;21.70;43.20;;;;;;4981899;28;20058;-58
2023/07/23 05:06:17;;;;;;;4.75;2.90;;;21.70;43.20;;;;;;4983829;28;20058;-53
2023/07/23 05:08:47;;;;;;;4.88;2.67;;;21.70;43.30;;;;;;4985423;28;20069;-55
2023/07/23 05:11:15;;;;;;;5.00;3.13;;;21.70;43.40;;;;;;4984748;28;20050;-55
2023/07/23 05:13:45;;;;;;;4.75;3.20;;;21.70;43.40;;;;;;4985908;28;20417;-55
2023/07/23 05:16:12;;;;;;;5.15;3.47;;;21.70;43.50;;;;;;4983649;28;20046;-52
2023/07/23 05:18:40;;;;;;;4.32;2.90;;;21.80;43.50;;;;;;4985836;28;20061;-59
2023/07/23 05:21:08;;;;;;;4.70;3.17;;;21.70;43.40;;;;;;4982961;28;20061;-59
2023/07/23 05:23:37;;;;;;;5.05;3.20;;;21.80;43.50;;;;;;4985303;28;20411;-59
2023/07/23 05:26:06;;;;;;;5.80;3.08;;;21.70;43.50;;;;;;4983661;28;20049;-59
2023/07/23 05:28:36;;;;;;;4.13;2.97;;;21.80;43.60;;;;;;4983807;28;20055;-52
2023/07/23 05:31:04;;;;;;;5.18;3.10;;;21.70;43.80;;;;;;4983788;28;20357;-57
2023/07/23 05:33:33;;;;;;;4.18;3.10;;;21.80;43.70;;;;;;4984103;28;20517;-55
2023/07/23 05:36:03;;;;;;;4.68;3.55;;;21.80;43.90;;;;;;4983908;28;20051;-58
2023/07/23 05:38:31;;;;;;;4.35;2.85;;;21.80;44.00;;;;;;4981438;28;20394;-59
2023/07/23 05:41:03;;;;;;;3.83;3.00;;;21.80;44.00;;;;;;4983392;28;20058;-57
2023/07/23 05:43:30;;;;;;;5.53;2.95;;;21.80;44.10;;;;;;4984424;28;20057;-59
2023/07/23 05:45:58;;;;;;;4.15;3.15;;;21.80;44.10;;;;;;4981818;28;21923;-51
2023/07/23 05:48:25;;;;;;;4.18;2.88;;;21.90;44.20;;;;;;4983634;28;20051;-59
2023/07/23 05:50:52;;;;;;;6.03;3.13;;;21.80;44.20;;;;;;4982479;28;20410;-53
2023/07/23 05:53:20;;;;;;;4.55;2.80;;;21.90;44.30;;;;;;4983253;28;20068;-55
2023/07/23 05:55:47;;;;;;;4.38;3.10;;;21.90;44.40;;;;;;4982556;28;20054;-55
2023/07/23 05:58:16;;;;;;;4.47;3.00;;;21.90;44.50;;;;;;4982680;28;20050;-57
2023/07/23 06:00:43;;;;;;;8.73;3.08;;;21.90;44.40;;;;;;4980395;28;20050;-57
2023/07/23 06:03:10;;;;;;;3.88;2.47;;;22.00;44.40;;;;;;4983140;28;20062;-53
2023/07/23 06:05:37;;;;;;;4.38;2.53;;;22.00;44.40;;;;;;4983548;28;20054;-58
2023/07/23 06:08:05;;;;;;;3.35;2.47;;;22.00;44.20;;;;;;4982410;28;20524;-58
2023/07/23 06:10:34;;;;;;;3.97;2.30;;;22.00;44.40;;;;;;4983114;28;20058;-58
2023/07/23 06:13:01;;;;;;;5.47;2.40;;;22.10;44.30;;;;;;4982208;28;20050;-49
2023/07/23 06:15:29;;;;;;;3.28;2.50;;;22.10;44.20;;;;;;4981277;28;20049;-56
2023/07/23 06:17:57;;;;;;;5.20;3.00;;;22.10;44.10;;;;;;4982996;28;20092;-59
2023/07/23 06:20:24;;;;;;;4.90;2.30;;;22.20;44.00;;;;;;4980309;28;20076;-54
2023/07/23 06:22:51;;;;;;;7.40;4.30;;;22.20;44.00;;;;;;4984193;28;20509;-57
2023/07/23 06:25:18;;;;;;;4.82;3.28;;;22.30;44.10;;;;;;4982703;28;20050;-46
2023/07/23 06:27:46;;;;;;;7.63;2.85;;;22.30;43.90;;;;;;4982946;28;20080;-51
2023/07/23 06:30:14;;;;;;;3.13;2.15;;;22.40;43.80;;;;;;4981235;28;20517;-54
2023/07/23 06:32:45;;;;;;;6.60;2.50;;;22.40;43.60;;;;;;4983327;28;20049;-58
2023/07/23 06:35:12;;;;;;;3.75;2.60;;;22.40;43.70;;;;;;4980850;28;20058;-58
2023/07/23 06:37:40;;;;;;;3.63;2.25;;;22.50;43.60;;;;;;4982924;28;20065;-58
2023/07/23 06:40:09;;;;;;;4.75;2.65;;;22.50;43.20;;;;;;4981013;28;20050;-56
2023/07/23 06:42:36;;;;;;;5.82;2.67;;;22.60;43.50;;;;;;4983348;28;20502;-58
2023/07/23 06:45:06;;;;;;;3.83;2.35;;;22.60;43.30;;;;;;4981425;28;20581;-50
2023/07/23 06:47:38;;;;;;;3.30;2.38;;;22.70;43.10;;;;;;4982261;28;20517;-58
2023/07/23 06:50:07;;;;;;;5.00;2.50;;;22.70;43.00;;;;;;4981408;28;20058;-53
2023/07/23 06:52:38;;;;;;;5.05;2.13;;;22.70;43.00;;;;;;4980776;28;20054;-42
2023/07/23 06:55:06;;;;;;;2.78;2.17;;;22.70;42.70;;;;;;4984002;28;20053;-44
2023/07/23 06:57:33;;;;;;;2.42;1.73;;;22.80;42.40;;;;;;4985603;28;20425;-43
2023/07/23 07:00:00;;;;;;;4.13;2.10;;;22.80;42.70;;;;;;4986471;28;20054;-44
2023/07/23 07:02:27;;;;;;;3.15;1.90;;;22.80;42.40;;;;;;4985360;28;20050;-45
2023/07/23 07:04:54;;;;;;;4.25;2.40;;;22.80;42.10;;;;;;4985232;28;20054;-45
2023/07/23 07:07:23;;;;;;;3.45;2.17;;;22.80;41.80;;;;;;4987267;28;20085;-47
2023/07/23 07:09:50;;;;;;;2.53;1.95;;;22.80;41.60;;;;;;4985661;28;20054;-47
2023/07/23 07:12:18;;;;;;;3.05;1.88;;;22.90;41.60;;;;;;4987508;28;20062;-44
2023/07/23 07:14:45;;;;;;;2.85;2.03;;;22.90;41.60;;;;;;4987041;28;20058;-46
2023/07/23 07:17:12;;;;;;;2.80;2.10;;;22.90;41.50;;;;;;4985707;28;20058;-43
2023/07/23 07:19:39;;;;;;;2.63;2.40;;;22.90;41.40;;;;;;4982515;28;20788;-47
2023/07/23 07:22:07;;;;;;;6.15;2.45;;;22.90;41.40;;;;;;4985069;28;20054;-44
2023/07/23 07:24:35;;;;;;;3.63;2.20;;;22.90;41.40;;;;;;4986519;28;20054;-47
2023/07/23 07:27:08;;;;;;;4.03;2.63;;;22.90;41.30;;;;;;4985872;28;20482;-40
2023/07/23 07:29:35;;;;;;;2.30;1.90;;;22.90;41.40;;;;;;4985525;28;20050;-44
2023/07/23 07:32:02;;;;;;;4.45;2.00;;;23.00;41.60;;;;;;4985171;28;20046;-44
2023/07/23 07:34:29;;;;;;;2.95;2.20;;;22.90;41.60;;;;;;4985707;28;20054;-44
2023/07/23 07:36:57;;;;;;;3.13;1.92;;;23.00;41.60;;;;;;4987312;28;20590;-44
2023/07/23 07:39:24;;;;;;;4.68;2.38;;;23.00;41.70;;;;;;4986637;28;20050;-43
2023/07/23 07:41:54;;;;;;;3.53;2.15;;;23.00;41.90;;;;;;4986031;28;20054;-43
2023/07/23 07:44:21;;;;;;;3.03;2.20;;;23.00;42.00;;;;;;4987230;28;20058;-48
2023/07/23 07:46:48;;;;;;;6.97;2.13;;;23.00;42.30;;;;;;4985949;28;20057;-43
2023/07/23 07:49:15;;;;;;;2.75;2.25;;;23.00;42.50;;;;;;4986526;28;20058;-44
2023/07/23 07:51:44;;;;;;;3.88;2.08;;;23.00;42.60;;;;;;4985965;28;20486;-46
2023/07/23 07:54:11;;;;;;;4.40;2.40;;;23.00;43.10;;;;;;4986043;28;20065;-44
2023/07/23 07:56:39;;;;;;;2.70;2.13;;;23.00;43.10;;;;;;4987878;28;20410;-42
2023/07/23 07:59:09;;;;;;;2.63;1.98;;;23.00;42.90;;;;;;4985600;28;20058;-46
2023/07/23 08:01:36;;;;;;;5.50;2.15;;;23.00;43.20;;;;;;4985534;28;20509;-44
2023/07/23 08:04:07;;;;;;;3.13;2.00;;;23.00;43.60;;;;;;4985710;28;20067;-43
2023/07/23 08:06:35;;;;;;;3.80;2.03;;;23.00;43.70;;;;;;4985093;28;20050;-46
2023/07/23 08:09:04;;;;;;;3.15;2.22;;;23.00;43.90;;;;;;4986045;28;20570;-44
2023/07/23 08:11:32;;;;;;;4.72;2.35;;;23.00;44.00;;;;;;4984757;28;20425;-47
2023/07/23 08:14:00;;;;;;;2.60;2.08;;;23.00;44.10;;;;;;4986602;28;20058;-43
2023/07/23 08:16:29;;;;;;;3.83;2.45;;;22.90;44.40;;;;;;4984476;28;20077;-45
2023/07/23 08:18:56;;;;;;;2.47;1.73;;;22.90;44.80;;;;;;4982810;28;20491;-47
2023/07/23 08:21:24;;;;;;;3.78;2.38;;;22.90;45.10;;;;;;4986137;28;20533;-44
2023/07/23 08:23:52;;;;;;;3.92;2.30;;;22.90;45.40;;;;;;4984910;28;20061;-48
2023/07/23 08:26:21;;;;;;;3.38;2.30;;;22.80;45.80;;;;;;4985435;28;20097;-46
2023/07/23 08:28:51;;;;;;;2.95;2.40;;;22.80;46.10;;;;;;4985344;28;21194;-44
2023/07/23 08:31:19;;;;;;;2.38;1.95;;;22.80;46.50;;;;;;4985109;28;20181;-43
2023/07/23 08:33:48;;;;;;;6.20;2.55;;;22.80;46.90;;;;;;4985774;28;20081;-44
2023/07/23 08:36:17;;;;;;;3.50;1.90;;;22.80;47.20;;;;;;4984224;28;20482;-45
2023/07/23 08:38:45;;;;;;;3.13;2.28;;;22.70;47.30;;;;;;4983956;28;20485;-47
2023/07/23 08:41:24;;;;;;;2.53;2.05;;;22.70;47.40;;;;;;4983642;28;20494;-45
2023/07/23 08:44:11;;;;;;;37.47;19.83;;;22.70;47.80;;;;;;4986263;28;20501;-50
2023/07/23 08:46:44;;;;;;;13.35;7.18;;;22.70;48.00;;;;;;4984785;28;20066;-42
2023/07/23 08:49:19;;;;;;;7.43;4.03;;;22.70;48.10;;;;;;4986067;28;20875;-44
2023/07/23 08:51:49;;;;;;;4.13;2.38;;;22.70;48.50;;;;;;4989137;28;20061;-45
2023/07/23 08:54:19;;;;;;;4.22;2.35;;;22.60;48.50;;;;;;4985614;28;20055;-46
2023/07/23 08:56:47;;;;;;;2.80;2.17;;;22.60;48.70;;;;;;4985422;28;20046;-48
2023/07/23 08:59:15;;;;;;;3.63;2.72;;;22.60;48.80;;;;;;4985707;28;20524;-44
2023/07/23 09:01:44;;;;;;;3.45;2.22;;;22.60;49.00;;;;;;4984330;28;21417;-43
2023/07/23 09:04:13;;;;;;;2.90;2.22;;;22.60;49.30;;;;;;4984860;28;20080;-47
2023/07/23 09:06:42;;;;;;;2.95;2.28;;;22.50;49.60;;;;;;4984000;28;20055;-45
2023/07/23 09:09:11;;;;;;;4.00;2.78;;;22.50;49.80;;;;;;4984941;28;20507;-47
2023/07/23 09:11:39;;;;;;;4.50;2.78;;;22.50;49.90;;;;;;4984328;28;20061;-44
2023/07/23 09:14:08;;;;;;;3.60;2.30;;;22.50;50.00;;;;;;4985789;28;20410;-47
2023/07/23 09:16:37;;;;;;;4.07;2.80;;;22.50;50.20;;;;;;4982497;28;20065;-47
2023/07/23 09:19:05;;;;;;;3.67;2.60;;;22.50;50.10;;;;;;4983623;28;20058;-49
2023/07/23 09:21:34;;;;;;;4.10;2.80;;;22.50;50.20;;;;;;4984446;28;20042;-46
2023/07/23 09:24:04;;;;;;;3.45;2.50;;;22.50;50.30;;;;;;4984529;28;20058;-49
2023/07/23 09:26:32;;;;;;;6.03;2.50;;;22.50;50.40;;;;;;4984478;28;20054;-47
2023/07/23 09:29:00;;;;;;;5.95;2.53;;;22.50;50.40;;;;;;4985470;28;20494;-43
2023/07/23 09:31:29;;;;;;;3.83;2.90;;;22.50;50.50;;;;;;4983543;28;20054;-45
2023/07/23 09:33:58;;;;;;;4.07;2.47;;;22.50;50.50;;;;;;4985168;28;20050;-46
2023/07/23 09:36:26;;;;;;;3.60;1.98;;;22.50;50.60;;;;;;4983860;28;20061;-45
2023/07/23 09:38:57;;;;;;;5.10;2.67;;;22.50;50.60;;;;;;4984624;28;20050;-47
2023/07/23 09:41:28;;;;;;;4.13;2.53;;;22.50;50.70;;;;;;4983819;28;20054;-47
2023/07/23 09:44:00;;;;;;;3.90;2.40;;;22.40;50.70;;;;;;4985730;28;20054;-47
2023/07/23 09:46:28;;;;;;;4.70;2.88;;;22.40;50.80;;;;;;4983256;28;20058;-45
2023/07/23 09:48:55;;;;;;;4.80;3.05;;;22.40;50.80;;;;;;4984201;28;20051;-47
2023/07/23 09:51:23;;;;;;;5.40;3.15;;;22.40;50.80;;;;;;4983918;28;20058;-49
2023/07/23 09:53:51;;;;;;;4.10;2.47;;;22.40;50.80;;;;;;4984782;28;20058;-44
2023/07/23 09:56:21;;;;;;;3.88;2.50;;;22.40;50.90;;;;;;4984080;28;20058;-49
2023/07/23 09:58:50;;;;;;;3.97;2.63;;;22.40;51.10;;;;;;4984604;28;20065;-42
2023/07/23 10:01:19;;;;;;;4.55;2.70;;;22.40;51.10;;;;;;4982252;28;20058;-47
2023/07/23 10:03:49;;;;;;;4.55;2.80;;;22.40;51.20;;;;;;4984145;28;20065;-44
2023/07/23 10:06:20;;;;;;;9.82;3.25;;;22.40;51.30;;;;;;4983878;28;20141;-50
2023/07/23 10:08:49;;;;;;;5.32;3.13;;;22.50;51.40;;;;;;4984570;28;20153;-44
2023/07/23 10:11:19;;;;;;;4.97;3.03;;;22.50;51.40;;;;;;4985253;28;20058;-45
2023/07/23 10:13:48;;;;;;;4.57;2.85;;;22.50;51.40;;;;;;4983814;28;20494;-46
2023/07/23 10:16:22;;;;;;;4.30;3.20;;;22.50;51.30;;;;;;4982418;28;20057;-44
2023/07/23 10:18:51;;;;;;;4.30;2.60;;;22.60;51.40;;;;;;4983189;28;20490;-43
2023/07/23 10:21:19;;;;;;;4.47;2.88;;;22.60;51.40;;;;;;4983670;28;20054;-49
2023/07/23 10:23:54;;;;;;;3.92;2.40;;;22.60;51.40;;;;;;4984402;28;20058;-47
2023/07/23 10:26:24;;;;;;;4.05;2.75;;;22.70;51.50;;;;;;4983909;28;20058;-44
2023/07/23 10:28:56;;;;;;;4.07;2.70;;;22.70;51.40;;;;;;4983157;28;20070;-44
2023/07/23 10:31:26;;;;;;;3.65;2.50;;;22.70;51.30;;;;;;4983778;28;20058;-48
2023/07/23 10:33:54;;;;;;;4.32;2.55;;;22.70;51.20;;;;;;4983474;28;20054;-43
2023/07/23 10:36:23;;;;;;;2.88;2.58;;;22.70;51.10;;;;;;4983513;28;20058;-43
2023/07/23 10:39:16;;;;;;;3.80;2.45;;;22.80;50.90;;;;;;4983315;28;20062;-46
2023/07/23 10:41:53;;;;;;;2.75;1.92;;;22.70;50.90;;;;;;4983022;28;20065;-49
2023/07/23 10:44:23;;;;;;;3.00;2.22;;;22.80;50.70;;;;;;4983843;28;20054;-46
2023/07/23 10:46:50;;;;;;;6.05;2.47;;;22.80;50.60;;;;;;4981773;28;20059;-46
2023/07/23 10:49:21;;;;;;;2.90;2.47;;;22.70;50.50;;;;;;4984516;28;20051;-46
2023/07/23 10:51:50;;;;;;;3.55;2.70;;;22.70;50.50;;;;;;4982770;28;20124;-47
2023/07/23 10:54:19;;;;;;;4.47;2.55;;;22.70;50.40;;;;;;4983317;28;20061;-45
2023/07/23 10:56:48;;;;;;;3.45;2.20;;;22.70;50.50;;;;;;4982763;28;20422;-50
2023/07/23 10:59:20;;;;;;;2.50;2.00;;;22.70;50.50;;;;;;4984654;28;20062;-46
2023/07/23 11:01:50;;;;;;;3.88;2.47;;;22.70;50.70;;;;;;4980969;28;20050;-44
2023/07/23 11:04:19;;;;;;;4.07;2.75;;;22.60;50.80;;;;;;4982562;28;20062;-44
2023/07/23 11:06:57;;;;;;;2.90;2.30;;;22.60;50.90;;;;;;4983503;28;20054;-48
2023/07/23 11:09:26;;;;;;;3.85;2.30;;;22.60;51.40;;;;;;4983386;28;20053;-44
2023/07/23 11:11:55;;;;;;;3.72;2.42;;;22.60;51.40;;;;;;4982982;28;20051;-43
2023/07/23 11:14:25;;;;;;;2.45;2.10;;;22.50;51.40;;;;;;4983955;28;21399;-48
2023/07/23 11:16:54;;;;;;;3.80;2.47;;;22.50;51.70;;;;;;4980467;28;20121;-42
2023/07/23 11:19:23;;;;;;;2.88;2.15;;;22.50;51.80;;;;;;4982342;28;20409;-48
2023/07/23 11:21:52;;;;;;;3.10;2.50;;;22.50;51.90;;;;;;4982107;28;20454;-48
2023/07/23 11:24:20;;;;;;;3.88;2.30;;;22.50;52.10;;;;;;4982235;28;20055;-48
2023/07/23 11:26:48;;;;;;;3.58;2.50;;;22.40;52.10;;;;;;4981675;28;20073;-49
2023/07/23 11:29:16;;;;;;;2.88;2.10;;;22.40;52.40;;;;;;4981884;28;20058;-48
2023/07/23 11:31:45;;;;;;;3.00;2.00;;;22.40;52.50;;;;;;4981743;28;20066;-47
2023/07/23 11:34:13;;;;;;;3.83;2.42;;;22.40;52.70;;;;;;4982303;28;20054;-59
2023/07/23 11:36:41;;;;;;;3.85;2.30;;;22.40;52.80;;;;;;4982553;28;20073;-58
2023/07/23 11:39:09;;;;;;;2.95;2.15;;;22.40;52.90;;;;;;4982367;28;20511;-59
2023/07/23 11:41:39;;;;;;;3.00;1.90;;;22.50;53.00;;;;;;4982929;28;20062;-59
2023/07/23 11:44:07;;;;;;;2.65;2.03;;;22.50;53.20;;;;;;4985489;28;20065;-58
2023/07/23 11:46:36;;;;;;;2.75;2.00;;;22.50;53.20;;;;;;4984350;28;20058;-54
2023/07/23 11:49:07;;;;;;;3.83;2.03;;;22.50;53.40;;;;;;4986669;28;20057;-57
2023/07/23 11:51:35;;;;;;;5.38;1.90;;;22.60;53.40;;;;;;4985441;28;20054;-59
2023/07/23 11:54:07;;;;;;;2.90;1.80;;;22.60;53.60;;;;;;4985616;28;20061;-56
2023/07/23 11:56:37;;;;;;;3.20;1.83;;;22.60;53.60;;;;;;4985877;28;20065;-59
2023/07/23 11:59:05;;;;;;;2.97;1.77;;;22.70;53.60;;;;;;4986433;28;20475;-58
2023/07/23 12:01:33;;;;;;;3.63;2.20;;;22.70;53.50;;;;;;4984502;28;20050;-57
2023/07/23 12:04:03;;;;;;;3.97;1.80;;;22.70;53.50;;;;;;4986049;28;20422;-59
2023/07/23 12:06:33;;;;;;;2.65;1.95;;;22.80;53.60;;;;;;4985495;28;20050;-51
2023/07/23 12:09:01;;;;;;;1.80;1.55;;;22.80;53.50;;;;;;4986832;28;20062;-59
2023/07/23 12:11:32;;;;;;;2.15;1.75;;;22.90;53.70;;;;;;4985384;28;20069;-60
2023/07/23 12:14:03;;;;;;;2.58;1.70;;;22.90;53.60;;;;;;4985775;28;20051;-48
2023/07/23 12:16:39;;;;;;;1.88;1.40;;;23.00;53.30;;;;;;4984676;28;20502;-57
2023/07/23 12:19:08;;;;;;;2.42;1.45;;;23.00;53.20;;;;;;4985122;28;20050;-54
2023/07/23 12:21:38;;;;;;;2.70;1.95;;;23.00;53.00;;;;;;4984868;28;20076;-58
2023/07/23 12:24:19;;;;;;;22.45;12.27;;;23.10;52.60;;;;;;4985440;28;20057;-57
2023/07/23 12:26:48;;;;;;;16.52;9.48;;;23.10;52.60;;;;;;4983340;28;20054;-53
2023/07/23 12:29:18;;;;;;;5.30;3.70;;;23.20;52.50;;;;;;4985409;28;20057;-59
2023/07/23 12:31:46;;;;;;;3.25;2.25;;;23.10;52.30;;;;;;4984452;28;20061;-57
2023/07/23 12:34:14;;;;;;;2.90;1.40;;;23.10;52.40;;;;;;4986718;28;20062;-51
2023/07/23 12:36:43;;;;;;;1.80;1.70;;;23.20;52.40;;;;;;4985771;28;20057;-57
2023/07/23 12:39:11;;;;;;;2.47;1.77;;;23.20;52.20;;;;;;4984051;28;20062;-54
2023/07/23 12:41:39;;;;;;;1.98;1.55;;;23.20;52.20;;;;;;4985799;28;20057;-55
2023/07/23 12:44:07;;;;;;;1.92;1.42;;;23.30;52.20;;;;;;4986394;28;20514;-44
2023/07/23 12:46:34;;;;;;;1.70;1.40;;;23.30;52.10;;;;;;4983861;28;21656;-45
2023/07/23 12:49:02;;;;;;;2.58;1.50;;;23.30;51.90;;;;;;4985639;28;20055;-48
2023/07/23 12:51:30;;;;;;;2.97;1.27;;;23.40;51.90;;;;;;4984342;28;20065;-45